Fish Lake Valley, Nevada Weather observations

Data are for 10 minute period ending at time listed.
 Day   Time    Ave.   Ave.  Ave.  Vector   Max.   Stn.    Total    Solar   Ave.  
  of    of     Air    Rel.  Wind   Wind    Wind   Baro.  Precip.   Rad.    Soil  
Year   Day     Temp.  Hum.  Speed  Dir.    Gust   Pres.                    Temp. 
2016   (PST)    F      %     mph   deg.    mph     mb.     in.     W/m2     F    
--------------------------------------------------------------------------------- 
 211    0:00   70.7    41    2.8   210      4.5   854.4    0.00       2    84.8  
 211    0:10   72.5    37    1.6    73      3.9   854.4    0.00       2    84.8  
 211    0:20   73.5    38    3.1    70      5.6   854.5    0.00       2    84.7  
 211    0:30   71.6    42    2.4    99      3.8   854.5    0.00       2    84.7  
 211    0:40   71.6    40    1.7   133      5.0   854.4    0.00       2    84.7  
 211    0:50   70.8    42    4.3   166      4.9   854.5    0.00       2    84.6  
 211    1:00   71.5    36    2.3   150      3.5   854.6    0.00       2    84.6  
 211    1:10   71.0    44    5.1   167      6.9   854.6    0.00       2    84.6  
 211    1:20   64.5    61    6.2   178      6.8   854.6    0.00       2    84.5  
 211    1:30   63.2    62    3.4   175      6.3   854.6    0.00       2    84.5  
 211    1:40   66.3    48    1.8   171      3.2   854.5    0.00       2    84.4  
 211    1:50   69.0    44    3.5   126      4.9   854.5    0.00       2    84.4  
 211    2:00   65.8    58    4.8   144      5.7   854.4    0.00       2    84.3  
 211    2:10   60.9    73    3.6   141      4.9   854.3    0.00       2    84.3  
 211    2:20   60.7    72    3.2   117      6.2   854.1    0.00       2    84.3  
 211    2:30   62.0    64    4.2   112      6.3   853.9    0.00       2    84.2  
 211    2:40   59.8    72    4.4   114      5.4   853.7    0.00       2    84.2  
 211    2:50   58.7    74    4.3   114      4.9   853.7    0.00       2    84.1  
 211    3:00   59.4    71    4.5   156      7.6   853.7    0.00       2    84.1  
 211    3:10   61.8    62    6.2   162      8.4   853.8    0.00       2    84.0  
 211    3:20   63.2    63    5.6   154      8.7   853.8    0.00       2    84.0  
 211    3:30   61.7    66    6.5   149      9.2   853.9    0.00       2    83.9  
 211    3:40   61.7    65    7.2   147      8.8   853.9    0.00       2    83.9  
 211    3:50   61.7    65    7.5   156      9.6   853.8    0.00       2    83.8  
 211    4:00   62.7    62    7.5   161      9.3   853.8    0.00       2    83.8  
 211    4:10   63.7    59    7.6   167     10.1   854.0    0.00       2    83.7  
 211    4:20   64.1    56    7.0   169      8.8   854.1    0.00       2    83.6  
 211    4:30   62.9    60    4.2   158      6.9   854.1    0.00       2    83.6  
 211    4:40   60.2    65    5.2   167      7.0   854.1    0.00       3    83.5  
 211    4:50   60.9    63    5.8   180      7.4   854.1    0.00       3    83.4  
 211    5:00   61.3    61    5.7   176      7.1   854.1    0.00       5    83.4  
 211    5:10   61.4    61    5.3   159      6.5   854.1    0.00       9    83.3  
 211    5:20   59.4    70    4.8   124      5.9   854.2    0.00      14    83.2  
 211    5:30   59.8    68    6.5   150      8.7   854.2    0.00      25    83.2  
 211    5:40   62.1    63    6.0   157      8.2   854.2    0.00      83    83.1  
 211    5:50   64.0    59    7.1   154      9.0   854.3    0.00     118    83.1  
 211    6:00   65.8    57    4.7   213      8.1   854.4    0.00     150    83.0  
 211    6:10   69.4    46    1.8   323      5.1   854.5    0.00     181    82.9  
 211    6:20   67.7    55    2.8   340      5.0   854.6    0.00     216    82.8  
 211    6:30   68.6    56    1.5   355      2.7   854.6    0.00     251    82.8  
 211    6:40   70.6    50    1.7   328      3.3   854.6    0.00     285    82.7  
 211    6:50   72.4    53    2.2   347      3.4   854.6    0.00     319    82.7  
 211    7:00   74.5    44    0.7   355      2.4   854.6    0.00     354    82.6  
 211    7:10   77.5    45    1.2    14      3.4   854.7    0.00     388    82.5  
 211    7:20   76.2    47    2.5   317      3.8   854.7    0.00     421    82.5  
 211    7:30   77.0    46    2.6   333      4.4   854.7    0.00     456    82.4  
 211    7:40   78.5    44    2.5   328      4.0   854.7    0.00     489    82.3  
 211    7:50   79.8    44    2.7   325      3.8   854.6    0.00     523    82.3  
 211    8:00   81.7    36    2.8   320      5.0   854.5    0.00     556    82.2  
 211    8:10   84.0    30    2.7   321      4.0   854.5    0.00     589    82.1  
 211    8:20   85.2    29    2.2   340      3.5   854.5    0.00     622    82.1  
 211    8:30   85.8    30    2.6   349      4.1   854.4    0.00     652    82.0  
 211    8:40   86.7    31    2.3   352      3.0   854.3    0.00     683    82.0  
 211    8:50   87.9    28    2.1     2      3.2   854.3    0.00     711    81.9  
 211    9:00   87.8    32    3.4   352      5.2   854.3    0.00     738    81.8  
 211    9:10   88.1    32    3.3   345      4.9   854.3    0.00     765    81.8  
 211    9:20   88.9    28    3.2   352      4.4   854.3    0.00     791    81.7  
 211    9:30   90.4    26    2.4   335      4.2   854.1    0.00     816    81.7  
 211    9:40   92.6    22    1.9   328      3.0   854.0    0.00     838    81.6  
 211    9:50   94.4    22    2.1   220      2.7   853.9    0.00     862    81.6  
 211   10:00   95.7    21    1.6   212      2.4   853.8    0.00     881    81.5  
 211   10:10  100.2    19    0.5   158      1.6   853.7    0.00     901    81.5  
 211   10:20   98.4    23    2.0   126      4.5   853.7    0.00     920    81.5  
 211   10:30   94.0    31    4.4   123      8.2   853.8    0.00     935    81.4  
 211   10:40   92.0    30    6.4   107     14.1   853.7    0.00     953    81.4  
 211   10:50   90.3    34    6.6   119     11.8   853.6    0.00     975    81.4  
 211   11:00   89.9    32    7.8   108     14.4   853.5    0.00    1002    81.4  
 211   11:10   91.6    31    6.5   119     13.3   853.4    0.00     823    81.4  
 211   11:20   86.2    29    8.6   144     17.6   853.4    0.00     128    81.4  
 211   11:30   83.6    34    6.7   177     11.9   853.5    0.00     137    81.3  
 211   11:40   90.2    18    7.8   252     13.5   853.4    0.00     133    81.4  
 211   11:50   88.3    24    8.9   228     14.1   853.4    0.00     145    81.4  
 211   12:00   84.6    32    6.3   194     11.4   853.3    0.00     155    81.4  
 211   12:10   82.0    41    5.5   140      6.3   853.1    0.00     172    81.4  
 211   12:20   81.8    42    8.4   174     18.1   853.0    0.00     239    81.4  
 211   12:30   85.1    28    8.8   156     14.7   852.8    0.00     341    81.5  
 211   12:40   82.4    35   10.0   188     17.6   852.8    0.00     203    81.5  
 211   12:50   82.3    31   11.7   191     18.2   852.7    0.00     231    81.5  
 211   13:00   83.4    29   11.6   188     18.8   852.4    0.00     351    81.6  
 211   13:10   84.1    31    9.0   163     13.7   852.3    0.00     434    81.6  
 211   13:20   88.1    31    7.5   163     13.3   852.2    0.00    1093    81.7  
 211   13:30   91.4    27    9.6   190     15.2   852.0    0.00    1074    81.8  
 211   13:40   92.1    26    9.4   176     13.9   851.9    0.00    1003    81.8  
 211   13:50   92.5    26    8.9   169     16.3   851.8    0.00    1014    81.9  
 211   14:00   91.8    24   11.4   180     19.8   851.8    0.00     979    81.9  
 211   14:10   91.5    24   12.0   172     17.1   851.5    0.00     954    82.0  
 211   14:20   92.1    25    8.7   169     16.9   851.3    0.00     938    82.1  
 211   14:30   93.2    25    8.1   152     17.0   851.1    0.00     920    82.1  
 211   14:40   91.2    30    9.1   125     14.6   851.0    0.00     873    82.2  
 211   14:50   91.1    28    7.8   153     14.3   851.0    0.00     654    82.3  
 211   15:00   87.9    30    8.7   131     14.5   851.0    0.00     321    82.3  
 211   15:10   86.7    27   13.2   164     22.4   851.0    0.00     272    82.4  
 211   15:20   86.5    27   12.0   186     19.5   851.3    0.00     182    82.4  
 211   15:30   86.0    27    5.8   192     14.2   851.5    0.00     116    82.5  
 211   15:40   86.8    26    4.2     6     11.6   851.8    0.00      77    82.6  
 211   15:50   86.8    25   12.5    40     16.9   851.8    0.00      67    82.6  
 211   16:00   87.7    23    7.6    24     16.0   852.1    0.00      60    82.7  
 211   16:10   86.6    25    6.9     9     12.2   852.5    0.00      64    82.7  
 211   16:20   85.6    28    2.7   327      6.1   852.7    0.00      68    82.8  
 211   16:30   85.9    27    6.8   211     11.7   852.8    0.00      67    82.9  
 211   16:40   82.2    33   10.2   214     21.2   852.8    0.00      81    82.9  
 211   16:50   84.5    27   13.2   212     19.7   852.8    0.00     103    83.0  
 211   17:00   86.8    22   13.7   235     21.5   852.8    0.00     114    83.1  
 211   17:10   87.6    21   13.1   242     22.4   852.7    0.00      92    83.1  
 211   17:20   87.0    22   10.8   234     19.0   852.6    0.00      62    83.2  
 211   17:30   86.5    22   12.1   232     19.9   852.5    0.00      51    83.2  
 211   17:40   87.0    21    9.7   240     16.1   852.4    0.00      42    83.3  
 211   17:50   88.2    20    8.6   236     14.8   852.3    0.00      32    83.4  
 211   18:00   88.2    19    7.9   246     13.2   852.3    0.00      22    83.4  
 211   18:10   85.3    24   10.4   227     25.4   852.3    0.00      17    83.5  
 211   18:20   89.2    16   10.4   254     18.2   852.4    0.00      13    83.5  
 211   18:30   88.5    20   15.5   269     30.1   852.9    0.00      25    83.6  
 211   18:40   86.8    22    6.8   262     16.6   853.1    0.00      26    83.6  
 211   18:50   88.1    16   13.0   283     31.0   853.1    0.00      10    83.7  
 211   19:00   90.6    13    8.0   331     18.0   852.8    0.00       6    83.7  
 211   19:10   89.2    15   14.7    10     38.4   852.6    0.00       4    83.8  
 211   19:20   87.8    16   15.0   351     31.0   852.8    0.00       3    83.8  
 211   19:30   87.9    17   19.5   343     38.4   852.9    0.00       3    83.8  
 211   19:40   87.5    17   15.8   331     32.5   853.0    0.00       3    83.8  
 211   19:50   87.4    17   13.5   344     22.3   852.8    0.00       3    83.9  
 211   20:00   86.3    19   10.0   342     19.6   852.8    0.00       3    83.9  
 211   20:10   85.2    21    7.6   356     13.3   852.8    0.00       3    83.9  
 211   20:20   82.2    27    5.5     5      7.5   852.7    0.00       3    83.9  
 211   20:30   80.8    28    5.4    26      7.6   852.6    0.00       3    83.9  
 211   20:40   81.3    26    3.9    32      7.4   852.6    0.00       3    84.0  
 211   20:50   81.3    25    4.2   261      8.2   852.8    0.00       3    84.0  
 211   21:00   81.2    27    4.6   167      8.4   853.0    0.00       3    84.0  
 211   21:10   78.9    30    4.6   131      8.2   853.1    0.00       2    84.0  
 211   21:20   78.1    32    2.9    73      6.3   853.2    0.00       2    84.0  
 211   21:30   78.9    28    3.3   250      5.8   853.3    0.00       2    84.0  
 211   21:40   80.7    27    1.3    95      4.9   853.5    0.00       2    84.0  
 211   21:50   80.6    26    3.3   348     10.3   853.7    0.00       2    84.0  
 211   22:00   81.7    25    4.1   283     10.1   853.7    0.00       2    84.0  
 211   22:10   80.6    26    1.9   277      4.5   853.6    0.00       2    84.0  
 211   22:20   81.6    24    3.5   252      7.9   853.6    0.00       2    84.0  
 211   22:30   79.4    28    4.4   230      6.7   853.5    0.00       2    84.0  
 211   22:40   77.5    28    3.5   282      5.8   853.4    0.00       2    84.0  

Return to Fish Lake Valley, Nevada graphs page.


Western Regional Climate Center,wrcc@dri.edu